createdAt,value
2023-05-25T00:02:24.568Z,65.25
2023-05-25T00:04:52.869Z,63.29
2023-05-25T00:07:20.889Z,63.30
2023-05-25T00:09:48.868Z,63.32
2023-05-25T00:12:16.798Z,63.01
2023-05-25T00:14:46.333Z,63.57
2023-05-25T00:17:14.437Z,61.18
2023-05-25T00:19:44.119Z,61.22
2023-05-25T00:22:12.376Z,63.44
2023-05-25T00:24:41.400Z,65.07
2023-05-25T00:27:09.823Z,65.42
2023-05-25T00:29:37.722Z,64.94
2023-05-25T00:32:08.019Z,63.86
2023-05-25T00:34:36.306Z,63.69
2023-05-25T00:37:04.403Z,64.51
2023-05-25T00:39:32.382Z,64.46
2023-05-25T00:42:03.671Z,62.85
2023-05-25T00:44:32.195Z,63.39
2023-05-25T00:47:00.568Z,63.76
2023-05-25T00:49:32.724Z,63.59
2023-05-25T00:52:00.875Z,63.51
2023-05-25T00:54:28.807Z,63.62
2023-05-25T00:56:58.410Z,64.20
2023-05-25T00:59:35.719Z,64.27
2023-05-25T01:02:08.633Z,66.02
2023-05-25T01:04:45.458Z,64.60
2023-05-25T01:07:18.815Z,65.72
2023-05-25T01:09:47.797Z,66.60
2023-05-25T01:12:16.730Z,70.27
2023-05-25T01:14:48.137Z,73.20
2023-05-25T01:17:16.851Z,72.85
2023-05-25T01:19:51.955Z,73.31
2023-05-25T01:22:33.036Z,73.19
2023-05-25T01:25:05.152Z,74.27
2023-05-25T01:27:39.524Z,75.66
2023-05-25T01:30:13.809Z,72.70
2023-05-25T01:32:43.358Z,73.43
2023-05-25T01:35:12.262Z,71.99
2023-05-25T01:37:48.937Z,72.39
2023-05-25T01:40:17.196Z,70.65
2023-05-25T01:42:45.164Z,70.71
2023-05-25T01:45:15.320Z,71.53
2023-05-25T01:47:50.986Z,72.27
2023-05-25T01:50:25.156Z,68.52
2023-05-25T01:53:00.737Z,66.10
2023-05-25T01:55:33.786Z,66.05
2023-05-25T01:58:03.704Z,67.38
2023-05-25T02:00:34.309Z,67.96
2023-05-25T02:03:02.763Z,68.06
2023-05-25T02:05:31.189Z,67.63
2023-05-25T02:08:00.450Z,67.44
2023-05-25T02:10:32.972Z,67.67
2023-05-25T02:13:00.966Z,68.00
2023-05-25T02:15:32.965Z,67.63
2023-05-25T02:18:01.198Z,67.16
2023-05-25T02:20:31.755Z,66.93
2023-05-25T02:23:01.195Z,65.66
2023-05-25T02:25:29.166Z,67.30
2023-05-25T02:27:57.055Z,67.57
2023-05-25T02:30:25.141Z,65.29
2023-05-25T02:32:56.545Z,65.23
2023-05-25T02:35:24.638Z,66.63
2023-05-25T02:37:52.573Z,66.17
2023-05-25T02:40:21.812Z,66.43
2023-05-25T02:42:49.700Z,67.04
2023-05-25T02:45:18.150Z,66.50
2023-05-25T02:47:46.727Z,65.67
2023-05-25T02:50:14.918Z,66.34
2023-05-25T02:52:46.791Z,65.97
2023-05-25T02:55:14.767Z,65.37
2023-05-25T02:57:45.105Z,65.74
2023-05-25T03:00:19.452Z,66.29
2023-05-25T03:02:49.023Z,65.77
2023-05-25T03:05:19.654Z,65.84
2023-05-25T03:07:49.106Z,65.65
2023-05-25T03:10:17.022Z,65.55
2023-05-25T03:12:46.626Z,66.60
2023-05-25T03:15:14.628Z,65.38
2023-05-25T03:17:42.548Z,66.22
2023-05-25T03:20:11.911Z,64.66
2023-05-25T03:22:43.162Z,65.81
2023-05-25T03:25:13.111Z,65.55
2023-05-25T03:27:41.226Z,65.28
2023-05-25T03:30:12.270Z,65.40
2023-05-25T03:32:40.562Z,66.19
2023-05-25T03:35:09.055Z,66.72
2023-05-25T03:37:38.189Z,65.29
2023-05-25T03:40:09.598Z,66.72
2023-05-25T03:42:37.966Z,64.72
2023-05-25T03:45:09.031Z,65.02
2023-05-25T03:47:39.089Z,65.58
2023-05-25T03:50:08.282Z,65.90
2023-05-25T03:52:36.545Z,66.18
2023-05-25T03:55:05.905Z,65.97
2023-05-25T03:57:33.986Z,66.02
2023-05-25T04:00:01.938Z,66.20
2023-05-25T04:02:29.900Z,66.30
2023-05-25T04:04:59.896Z,66.82
2023-05-25T04:07:30.046Z,66.84
2023-05-25T04:10:00.161Z,66.91
2023-05-25T04:12:28.350Z,66.23
2023-05-25T04:14:56.403Z,64.34
2023-05-25T04:17:25.924Z,64.74
2023-05-25T04:19:54.195Z,64.48
2023-05-25T04:22:23.462Z,64.99
2023-05-25T04:24:51.291Z,65.06
2023-05-25T04:27:20.300Z,64.89
2023-05-25T04:29:50.228Z,64.30
2023-05-25T04:32:38.566Z,63.49
2023-05-25T04:35:20.797Z,63.66
2023-05-25T04:37:51.606Z,62.60
2023-05-25T04:40:21.726Z,61.83
2023-05-25T04:42:49.937Z,62.42
2023-05-25T04:45:21.438Z,61.93
2023-05-25T04:47:49.864Z,60.80
2023-05-25T04:50:18.454Z,61.20
2023-05-25T04:52:46.347Z,60.45
2023-05-25T04:55:16.093Z,60.69
2023-05-25T04:57:45.286Z,61.32
2023-05-25T05:00:15.226Z,61.99
2023-05-25T05:02:44.083Z,62.18
2023-05-25T05:05:12.084Z,61.81
2023-05-25T05:07:41.044Z,61.47
2023-05-25T05:10:09.879Z,60.97
2023-05-25T05:12:41.549Z,59.96
2023-05-25T05:15:09.989Z,60.66
2023-05-25T05:17:39.704Z,60.46
2023-05-25T05:20:09.498Z,59.85
2023-05-25T05:22:38.805Z,60.22
2023-05-25T05:25:08.349Z,59.93
2023-05-25T05:27:36.283Z,58.86
2023-05-25T05:30:13.342Z,58.20
2023-05-25T05:32:41.570Z,58.27
2023-05-25T05:35:11.126Z,58.22
2023-05-25T05:37:43.987Z,61.95
2023-05-25T05:40:12.939Z,63.96
2023-05-25T05:42:43.098Z,64.18
2023-05-25T05:45:13.391Z,63.71
2023-05-25T05:47:41.486Z,64.13
2023-05-25T05:50:10.137Z,66.05
2023-05-25T05:52:39.629Z,66.46
2023-05-25T05:55:08.434Z,62.56
2023-05-25T05:57:39.059Z,59.06
2023-05-25T06:00:08.985Z,58.67
2023-05-25T06:02:47.367Z,58.65
2023-05-25T06:05:21.140Z,58.74
2023-05-25T06:07:49.607Z,57.74
2023-05-25T06:10:19.830Z,56.13
2023-05-25T06:12:47.719Z,57.09
2023-05-25T06:15:16.994Z,56.86
2023-05-25T06:17:48.265Z,56.00
2023-05-25T06:20:17.343Z,56.07
2023-05-25T06:22:46.563Z,55.71
2023-05-25T06:25:14.517Z,58.60
2023-05-25T06:27:42.426Z,58.95
2023-05-25T06:30:13.317Z,58.08
2023-05-25T06:32:43.356Z,55.85
2023-05-25T06:35:19.490Z,54.29
2023-05-25T06:37:49.612Z,53.75
2023-05-25T06:40:19.775Z,53.44
2023-05-25T06:42:47.861Z,53.05
2023-05-25T06:45:39.483Z,53.73
2023-05-25T06:48:07.771Z,53.82
2023-05-25T06:50:37.832Z,53.54
2023-05-25T06:53:05.903Z,53.56
2023-05-25T06:55:33.836Z,52.80
2023-05-25T06:58:01.807Z,53.20
2023-05-25T07:00:29.739Z,52.59
2023-05-25T07:02:57.708Z,50.93
2023-05-25T07:05:25.744Z,50.77
2023-05-25T07:07:55.100Z,51.16
2023-05-25T07:10:24.199Z,54.09
2023-05-25T07:12:52.452Z,52.07
2023-05-25T07:15:21.659Z,52.29
2023-05-25T07:17:50.891Z,50.57
2023-05-25T07:20:19.113Z,54.09
2023-05-25T07:22:48.437Z,52.45
2023-05-25T07:25:17.961Z,51.88
2023-05-25T07:27:50.178Z,53.22
2023-05-25T07:30:18.234Z,52.16
2023-05-25T07:32:46.474Z,51.75
2023-05-25T07:35:14.631Z,54.83
2023-05-25T07:37:42.607Z,49.21
2023-05-25T07:40:11.363Z,47.18
2023-05-25T07:42:40.686Z,51.88
2023-05-25T07:45:09.466Z,52.27
2023-05-25T07:47:37.416Z,53.13
2023-05-25T07:50:06.633Z,54.11
2023-05-25T07:52:34.583Z,53.20
2023-05-25T07:55:02.558Z,52.59
2023-05-25T07:57:30.483Z,52.57
2023-05-25T07:59:59.882Z,52.40
2023-05-25T08:02:27.870Z,53.21
2023-05-25T08:04:56.209Z,53.75
2023-05-25T08:07:24.965Z,52.72
2023-05-25T08:09:52.853Z,51.41
2023-05-25T08:14:51.751Z,51.44
2023-05-25T08:17:21.164Z,51.25
2023-05-25T08:19:49.300Z,52.06
2023-05-25T08:22:17.512Z,50.06
2023-05-25T08:24:45.434Z,52.16
2023-05-25T08:27:13.428Z,52.01
2023-05-25T08:29:41.273Z,52.68
2023-05-25T08:32:09.152Z,51.00
2023-05-25T08:34:38.508Z,50.57
2023-05-25T08:37:06.885Z,49.69
2023-05-25T08:39:34.987Z,50.00
2023-05-25T08:42:03.784Z,49.01
2023-05-25T08:44:32.303Z,49.90
2023-05-25T08:47:07.372Z,49.64
2023-05-25T08:49:39.249Z,51.48
2023-05-25T08:52:11.814Z,52.42
2023-05-25T08:54:44.162Z,50.38
2023-05-25T08:57:16.236Z,50.86
2023-05-25T08:59:48.063Z,50.15
2023-05-25T09:02:27.638Z,49.01
2023-05-25T09:04:57.164Z,44.28
2023-05-25T09:07:27.173Z,45.29
2023-05-25T09:09:55.964Z,45.28
2023-05-25T09:12:24.411Z,44.86
2023-05-25T09:14:54.653Z,44.24
2023-05-25T09:17:23.278Z,43.91
2023-05-25T09:19:52.025Z,44.12
2023-05-25T09:22:21.460Z,44.20
2023-05-25T09:24:50.269Z,43.36
2023-05-25T09:27:20.256Z,43.04
2023-05-25T09:29:49.570Z,42.77
2023-05-25T09:32:17.929Z,42.65
2023-05-25T09:34:45.931Z,43.92
2023-05-25T09:37:15.075Z,45.21
2023-05-25T09:39:45.385Z,43.10
2023-05-25T09:42:13.541Z,43.71
2023-05-25T09:44:42.687Z,43.72
2023-05-25T09:47:11.113Z,47.97
2023-05-25T09:49:39.327Z,47.47
2023-05-25T09:52:07.860Z,49.48
2023-05-25T09:54:37.519Z,48.53
2023-05-25T09:57:07.742Z,48.37
2023-05-25T09:59:35.778Z,44.64
2023-05-25T10:02:03.944Z,48.22
2023-05-25T10:04:31.841Z,43.13
2023-05-25T10:07:01.738Z,42.91
2023-05-25T10:09:30.977Z,42.04
2023-05-25T10:12:01.357Z,42.07
2023-05-25T10:14:31.273Z,43.36
2023-05-25T10:17:00.584Z,41.90
2023-05-25T10:19:34.310Z,43.46
2023-05-25T10:22:08.018Z,44.20
2023-05-25T10:24:39.982Z,42.76
2023-05-25T10:27:25.610Z,43.49
2023-05-25T10:29:57.376Z,43.28
2023-05-25T10:32:26.113Z,42.74
2023-05-25T10:34:54.676Z,43.95
2023-05-25T10:37:26.434Z,44.75
2023-05-25T10:39:57.653Z,43.77
2023-05-25T10:42:27.299Z,43.40
2023-05-25T10:44:57.454Z,41.39
2023-05-25T10:47:27.279Z,43.42
2023-05-25T10:49:57.767Z,43.71
2023-05-25T10:52:28.773Z,42.97
2023-05-25T10:54:58.122Z,42.75
2023-05-25T10:57:26.824Z,41.45
2023-05-25T11:00:01.745Z,42.38
2023-05-25T11:02:30.265Z,41.53
2023-05-25T11:05:33.185Z,40.46
2023-05-25T11:08:02.064Z,40.84
2023-05-25T11:10:54.018Z,40.86
2023-05-25T11:13:41.303Z,39.58
2023-05-25T11:16:18.031Z,38.05
2023-05-25T11:18:50.134Z,37.74
2023-05-25T11:21:24.307Z,37.45
2023-05-25T11:24:00.067Z,38.79
2023-05-25T11:26:29.889Z,39.74
2023-05-25T11:28:59.931Z,41.07
2023-05-25T11:31:38.344Z,39.29
2023-05-25T11:34:09.352Z,41.29
2023-05-25T11:36:37.618Z,40.06
2023-05-25T11:39:14.196Z,40.51
2023-05-25T11:41:51.413Z,40.61
2023-05-25T11:44:28.219Z,40.09
2023-05-25T11:46:58.461Z,38.41
2023-05-25T11:49:26.723Z,37.35
2023-05-25T11:51:54.854Z,38.22
2023-05-25T11:54:24.186Z,38.54
2023-05-25T11:56:52.392Z,38.62
2023-05-25T11:59:20.608Z,39.21
2023-05-25T12:02:03.225Z,38.30
2023-05-25T12:04:32.840Z,38.29
2023-05-25T12:07:04.722Z,38.81
2023-05-25T12:09:33.058Z,36.30
2023-05-25T12:12:02.434Z,33.88
2023-05-25T12:14:31.132Z,34.44
2023-05-25T12:16:59.370Z,36.08
2023-05-25T12:19:28.842Z,37.73
2023-05-25T12:21:56.849Z,40.24
2023-05-25T12:24:25.133Z,41.76
2023-05-25T12:26:57.312Z,42.68
2023-05-25T12:29:26.013Z,41.04
2023-05-25T12:31:54.017Z,40.00
2023-05-25T12:34:22.324Z,39.97
2023-05-25T12:36:52.991Z,41.37
2023-05-25T12:39:35.134Z,40.20
2023-05-25T12:42:03.614Z,38.26
2023-05-25T12:44:34.747Z,39.37
2023-05-25T12:47:12.770Z,39.29
2023-05-25T12:49:42.111Z,39.11
2023-05-25T12:52:12.482Z,38.51
2023-05-25T12:54:44.081Z,38.51
2023-05-25T12:57:14.255Z,38.29
2023-05-25T12:59:43.286Z,42.44
2023-05-25T13:02:11.942Z,42.31
2023-05-25T13:04:41.094Z,41.58
2023-05-25T13:07:11.766Z,42.60
2023-05-25T13:09:39.995Z,43.15
2023-05-25T13:12:08.784Z,43.43
2023-05-25T13:14:36.598Z,44.00
2023-05-25T13:17:04.937Z,42.96
2023-05-25T13:19:32.861Z,44.08
2023-05-25T13:22:00.812Z,44.97
2023-05-25T13:24:30.750Z,44.97
2023-05-25T13:26:58.681Z,43.88
2023-05-25T13:29:26.707Z,43.35
2023-05-25T13:31:54.615Z,44.45
2023-05-25T13:34:22.510Z,42.98
2023-05-25T13:36:50.362Z,42.81
2023-05-25T13:39:22.770Z,42.26
2023-05-25T13:41:53.298Z,41.16
2023-05-25T13:44:21.383Z,41.36
2023-05-25T13:46:49.787Z,41.22
2023-05-25T13:49:19.565Z,42.34
2023-05-25T13:51:47.655Z,42.76
2023-05-25T13:54:15.570Z,43.83
2023-05-25T13:56:43.697Z,46.59
2023-05-25T13:59:13.042Z,45.96
2023-05-25T14:01:41.041Z,45.46
2023-05-25T14:04:10.128Z,42.39
2023-05-25T14:06:38.139Z,41.14
2023-05-25T14:09:06.098Z,34.61
2023-05-25T14:11:33.985Z,29.23
2023-05-25T14:14:01.899Z,28.67
2023-05-25T14:16:31.259Z,28.74
2023-05-25T14:18:59.187Z,28.58
2023-05-25T14:21:27.036Z,31.71
2023-05-25T14:23:55.154Z,33.31
2023-05-25T14:26:23.203Z,31.98
2023-05-25T14:28:51.521Z,26.74
2023-05-25T14:31:19.575Z,25.53
2023-05-25T14:33:48.887Z,24.77
2023-05-25T14:36:16.792Z,27.52
2023-05-25T14:38:44.728Z,28.14
2023-05-25T14:41:12.596Z,28.63
2023-05-25T14:43:40.490Z,26.53
2023-05-25T14:46:10.180Z,28.28
2023-05-25T14:48:41.947Z,31.11
2023-05-25T14:51:11.720Z,29.31
2023-05-25T14:53:39.811Z,25.76
2023-05-25T14:56:09.730Z,28.64
2023-05-25T14:58:39.357Z,30.12
2023-05-25T15:01:07.219Z,27.32
2023-05-25T15:03:35.524Z,24.07
2023-05-25T15:06:03.849Z,23.73
2023-05-25T15:08:33.169Z,23.00
2023-05-25T15:11:01.114Z,25.81
2023-05-25T15:13:29.094Z,26.77
2023-05-25T15:15:57.786Z,24.49
2023-05-25T15:18:25.909Z,23.49
2023-05-25T15:20:53.972Z,21.86
2023-05-25T15:23:21.806Z,19.89
2023-05-25T15:25:51.098Z,21.05
2023-05-25T15:28:19.021Z,19.66
2023-05-25T15:30:47.019Z,21.70
2023-05-25T15:33:15.132Z,20.59
2023-05-25T15:35:43.563Z,20.18
2023-05-25T15:38:11.570Z,20.23
2023-05-25T15:40:39.473Z,20.61
2023-05-25T15:43:08.790Z,20.89
2023-05-25T15:45:36.715Z,25.45
2023-05-25T15:48:06.045Z,27.23
2023-05-25T15:50:33.989Z,29.24
2023-05-25T15:53:01.903Z,28.53
2023-05-25T15:55:29.913Z,25.10
2023-05-25T15:57:57.781Z,23.02
2023-05-25T16:00:27.078Z,21.32
2023-05-25T16:02:55.066Z,20.67
2023-05-25T16:05:23.157Z,20.50
2023-05-25T16:07:51.126Z,20.61
2023-05-25T16:10:19.252Z,24.71
2023-05-25T16:12:47.189Z,26.74
2023-05-25T16:15:15.230Z,29.99
2023-05-25T16:17:44.646Z,31.67
2023-05-25T16:20:13.377Z,31.94
2023-05-25T16:22:41.325Z,30.51
2023-05-25T16:25:10.426Z,29.20
2023-05-25T16:27:38.284Z,29.53
2023-05-25T16:30:07.730Z,26.31
2023-05-25T16:32:35.647Z,26.14
2023-05-25T16:35:05.557Z,25.84
2023-05-25T16:37:33.505Z,24.86
2023-05-25T16:40:01.471Z,26.64
2023-05-25T16:42:29.590Z,27.30
2023-05-25T16:44:57.508Z,25.20
2023-05-25T16:47:25.502Z,24.68
2023-05-25T16:49:53.445Z,25.19
2023-05-25T16:52:22.734Z,25.02
2023-05-25T16:54:50.650Z,24.54
2023-05-25T16:57:18.539Z,23.19
2023-05-25T16:59:46.655Z,23.82
2023-05-25T17:02:14.567Z,26.13
2023-05-25T17:04:42.494Z,25.69
2023-05-25T17:07:10.422Z,27.49
2023-05-25T17:09:39.649Z,24.32
2023-05-25T17:12:08.536Z,22.48
2023-05-25T17:14:36.404Z,22.00
2023-05-25T17:17:04.370Z,21.56
2023-05-25T17:19:32.256Z,21.29
2023-05-25T17:22:00.224Z,23.60
2023-05-25T17:24:28.122Z,22.75
2023-05-25T17:26:57.353Z,21.99
2023-05-25T17:29:25.231Z,21.34
2023-05-25T17:31:53.221Z,22.25
2023-05-25T17:34:21.196Z,22.30
2023-05-25T17:36:49.148Z,22.59
2023-05-25T17:39:17.082Z,22.80
2023-05-25T17:41:45.746Z,23.44
2023-05-25T17:44:15.127Z,23.05
2023-05-25T17:46:43.045Z,23.41
2023-05-25T17:49:10.957Z,24.19
2023-05-25T17:51:38.944Z,23.98
2023-05-25T17:54:06.995Z,24.81
2023-05-25T17:56:35.009Z,25.82
2023-05-25T17:59:03.610Z,27.66
2023-05-25T18:01:34.479Z,28.89
2023-05-25T18:04:02.667Z,30.34
2023-05-25T18:06:30.669Z,30.17
2023-05-25T18:08:58.605Z,31.34
2023-05-25T18:11:28.268Z,31.41
2023-05-25T18:13:56.194Z,33.34
2023-05-25T18:16:24.104Z,33.28
2023-05-25T18:18:53.418Z,33.82
2023-05-25T18:21:21.358Z,34.73
2023-05-25T18:23:49.358Z,35.66
2023-05-25T18:26:17.423Z,36.12
2023-05-25T18:28:45.317Z,36.65
2023-05-25T18:31:13.301Z,37.33
2023-05-25T18:33:41.470Z,37.85
2023-05-25T18:36:10.900Z,38.41
2023-05-25T18:38:38.765Z,38.47
2023-05-25T18:41:06.812Z,38.52
2023-05-25T18:43:34.615Z,37.78
2023-05-25T18:46:02.511Z,38.58
2023-05-25T18:48:30.434Z,39.41
2023-05-25T18:50:58.334Z,39.86
2023-05-25T18:53:27.551Z,40.05
2023-05-25T18:55:55.603Z,41.78
2023-05-25T18:58:23.563Z,40.54
2023-05-25T19:00:51.499Z,45.77
2023-05-25T19:03:19.475Z,44.54
2023-05-25T19:05:47.530Z,44.09
2023-05-25T19:08:15.633Z,44.20
2023-05-25T19:10:45.170Z,44.89
2023-05-25T19:13:13.063Z,45.33
2023-05-25T19:15:40.976Z,44.86
2023-05-25T19:18:08.860Z,45.78
2023-05-25T19:20:36.925Z,46.19
2023-05-25T19:23:04.898Z,49.45
2023-05-25T19:25:32.878Z,50.56
2023-05-25T19:28:02.375Z,48.45
2023-05-25T19:30:30.234Z,47.61
2023-05-25T19:32:58.092Z,47.92
2023-05-25T19:35:25.940Z,48.50
2023-05-25T19:37:53.836Z,48.93
2023-05-25T19:40:21.733Z,49.39
2023-05-25T19:42:49.502Z,49.21
2023-05-25T19:45:19.194Z,50.00
2023-05-25T19:47:47.369Z,49.70
2023-05-25T19:50:15.578Z,50.34
2023-05-25T19:52:43.417Z,51.57
2023-05-25T19:55:11.282Z,51.79
2023-05-25T19:57:39.468Z,51.63
2023-05-25T20:00:11.530Z,52.36
2023-05-25T20:02:46.687Z,52.49
2023-05-25T20:05:14.605Z,52.25
2023-05-25T20:07:43.957Z,52.39
2023-05-25T20:10:12.162Z,52.94
2023-05-25T20:12:40.092Z,53.49
2023-05-25T20:15:08.455Z,54.10
2023-05-25T20:17:36.373Z,54.61
2023-05-25T20:20:06.725Z,52.05
2023-05-25T20:22:34.563Z,52.98
2023-05-25T20:25:02.641Z,53.72
2023-05-25T20:27:30.463Z,53.68
2023-05-25T20:29:58.468Z,53.39
2023-05-25T20:32:26.330Z,55.53
2023-05-25T20:34:54.194Z,54.89
2023-05-25T20:37:23.421Z,55.74
2023-05-25T20:39:51.201Z,55.98
2023-05-25T20:42:19.076Z,55.71
2023-05-25T20:44:46.876Z,55.07
2023-05-25T20:47:14.724Z,55.03
2023-05-25T20:49:42.805Z,55.04
2023-05-25T20:52:10.666Z,57.42
2023-05-25T20:54:44.492Z,56.95
2023-05-25T20:57:12.371Z,57.15
2023-05-25T20:59:40.424Z,55.80
2023-05-25T21:02:08.824Z,55.92
2023-05-25T21:04:36.710Z,55.65
2023-05-25T21:07:04.729Z,55.07
2023-05-25T21:09:32.593Z,53.68
2023-05-25T21:12:03.499Z,53.64
2023-05-25T21:14:31.264Z,56.12
2023-05-25T21:16:59.134Z,57.90
2023-05-25T21:19:26.966Z,57.46
2023-05-25T21:21:54.819Z,57.05
2023-05-25T21:24:22.670Z,57.28
2023-05-25T21:26:50.493Z,57.66
2023-05-25T21:29:19.659Z,56.29
2023-05-25T21:31:47.705Z,57.82
2023-05-25T21:34:15.620Z,58.16
2023-05-25T21:36:43.686Z,57.85
2023-05-25T21:39:11.546Z,56.72
2023-05-25T21:41:39.337Z,56.78
2023-05-25T21:44:07.165Z,56.24
2023-05-25T21:46:36.455Z,56.46
2023-05-25T21:49:04.374Z,56.66
2023-05-25T21:51:32.848Z,56.49
2023-05-25T21:54:01.077Z,55.79
2023-05-25T21:56:28.992Z,56.10
2023-05-25T21:58:56.758Z,55.16
2023-05-25T22:01:24.817Z,54.00
2023-05-25T22:03:53.949Z,54.68
2023-05-25T22:06:21.711Z,55.71
2023-05-25T22:08:49.522Z,56.23
2023-05-25T22:11:17.296Z,54.99
2023-05-25T22:13:45.103Z,54.90
2023-05-25T22:16:12.946Z,55.19
2023-05-25T22:18:40.798Z,54.97
2023-05-25T22:21:10.003Z,56.02
2023-05-25T22:23:37.812Z,56.63
2023-05-25T22:26:05.603Z,55.28
2023-05-25T22:28:33.433Z,55.29
2023-05-25T22:31:01.242Z,54.22
2023-05-25T22:33:29.013Z,54.24
2023-05-25T22:35:56.826Z,54.33
2023-05-25T22:38:26.116Z,54.37
2023-05-25T22:40:53.940Z,53.49
2023-05-25T22:43:21.856Z,52.81
2023-05-25T22:45:49.809Z,52.88
2023-05-25T22:48:17.658Z,53.50
2023-05-25T22:50:45.509Z,53.99
2023-05-25T22:53:13.337Z,52.95
2023-05-25T22:55:43.345Z,52.12
2023-05-25T22:58:11.823Z,52.46
2023-05-25T23:00:39.623Z,53.72
2023-05-25T23:03:07.486Z,52.93
2023-05-25T23:05:35.320Z,52.27
2023-05-25T23:08:03.701Z,51.90
2023-05-25T23:10:31.518Z,51.62
2023-05-25T23:13:01.044Z,51.92
2023-05-25T23:15:30.708Z,51.83
2023-05-25T23:17:58.617Z,51.91
2023-05-25T23:20:26.507Z,50.76
2023-05-25T23:22:54.438Z,52.24
2023-05-25T23:25:22.343Z,52.92
2023-05-25T23:27:50.129Z,53.83
2023-05-25T23:30:19.527Z,51.84
2023-05-25T23:32:47.362Z,52.35
2023-05-25T23:35:15.372Z,51.59
2023-05-25T23:37:43.979Z,51.95
2023-05-25T23:40:12.092Z,51.42
2023-05-25T23:42:41.323Z,51.48
2023-05-25T23:45:10.217Z,52.31
2023-05-25T23:47:39.389Z,51.56
2023-05-25T23:50:07.967Z,51.40
2023-05-25T23:52:35.902Z,51.26
2023-05-25T23:55:03.739Z,51.78
2023-05-25T23:57:31.585Z,51.87
2023-05-25T23:59:59.400Z,53.24
